createdAt,value
2023-01-07T00:00:40.051Z,70.54
2023-01-07T00:05:44.034Z,70.29
2023-01-07T00:10:46.601Z,70.70
2023-01-07T00:15:49.261Z,70.21
2023-01-07T00:20:51.828Z,70.27
2023-01-07T00:26:03.235Z,69.90
2023-01-07T00:31:14.382Z,68.54
2023-01-07T00:36:17.159Z,68.46
2023-01-07T00:41:19.703Z,68.52
2023-01-07T00:46:22.921Z,69.06
2023-01-07T00:51:25.658Z,69.87
2023-01-07T00:56:28.233Z,69.92
2023-01-07T01:01:31.043Z,69.11
2023-01-07T01:06:33.748Z,69.73
2023-01-07T01:11:36.426Z,69.24
2023-01-07T01:16:39.443Z,69.32
2023-01-07T01:21:42.337Z,69.34
2023-01-07T01:26:44.991Z,68.83
2023-01-07T01:31:48.665Z,69.58
2023-01-07T01:36:51.673Z,69.72
2023-01-07T01:41:54.510Z,69.07
2023-01-07T01:46:57.222Z,69.10
2023-01-07T01:52:13.084Z,68.72
2023-01-07T01:57:20.686Z,69.25
2023-01-07T02:02:29.019Z,69.20
2023-01-07T02:07:32.216Z,68.61
2023-01-07T02:12:56.751Z,69.47
2023-01-07T02:18:15.375Z,68.78
2023-01-07T02:23:44.078Z,69.05
2023-01-07T02:29:22.684Z,69.68
2023-01-07T02:34:50.501Z,68.63
2023-01-07T02:40:05.307Z,68.20
2023-01-07T02:45:07.862Z,68.12
2023-01-07T02:50:14.656Z,69.58
2023-01-07T02:55:22.424Z,70.13
2023-01-07T03:00:47.116Z,68.77
2023-01-07T03:06:05.086Z,69.98
2023-01-07T03:11:10.213Z,68.60
2023-01-07T03:16:36.618Z,68.72
2023-01-07T03:21:39.483Z,69.53
2023-01-07T03:26:48.900Z,68.25
2023-01-07T03:32:13.413Z,68.57
2023-01-07T03:37:18.721Z,67.74
2023-01-07T03:42:42.316Z,68.96
2023-01-07T03:47:53.304Z,69.81
2023-01-07T03:52:57.106Z,68.92
2023-01-07T03:58:00.625Z,69.01
2023-01-07T04:03:03.418Z,69.47
2023-01-07T04:08:14.086Z,68.69
2023-01-07T04:13:17.663Z,69.04
2023-01-07T04:18:22.837Z,68.65
2023-01-07T04:23:25.578Z,68.48
2023-01-07T04:28:30.087Z,68.83
2023-01-07T04:33:33.240Z,68.37
2023-01-07T04:38:36.120Z,68.98
2023-01-07T04:43:40.045Z,68.51
2023-01-07T04:48:43.759Z,68.52
2023-01-07T04:53:47.833Z,67.94
2023-01-07T04:58:50.609Z,68.75
2023-01-07T05:03:54.146Z,67.98
2023-01-07T05:08:56.825Z,68.27
2023-01-07T05:14:00.984Z,69.06
2023-01-07T05:19:06.912Z,68.85
2023-01-07T05:24:14.409Z,68.71
2023-01-07T05:29:17.483Z,67.56
2023-01-07T05:34:21.705Z,68.67
2023-01-07T05:39:26.082Z,68.23
2023-01-07T05:44:29.273Z,68.29
2023-01-07T05:49:31.923Z,68.91
2023-01-07T05:54:34.483Z,68.16
2023-01-07T05:59:37.077Z,68.78
2023-01-07T06:04:39.800Z,68.17
2023-01-07T06:09:42.476Z,68.57
2023-01-07T06:14:45.051Z,67.78
2023-01-07T06:19:47.979Z,67.80
2023-01-07T06:24:50.627Z,68.23
2023-01-07T06:29:54.289Z,67.76
2023-01-07T06:34:56.906Z,67.69
2023-01-07T06:39:59.553Z,68.10
2023-01-07T06:45:02.185Z,67.64
2023-01-07T06:50:06.272Z,67.61
2023-01-07T06:55:09.515Z,67.31
2023-01-07T07:00:12.740Z,67.54
2023-01-07T07:05:15.704Z,67.62
2023-01-07T07:10:18.420Z,68.15
2023-01-07T07:15:21.030Z,68.67
2023-01-07T07:20:23.808Z,68.30
2023-01-07T07:25:26.419Z,68.14
2023-01-07T07:30:45.524Z,68.31
2023-01-07T07:35:49.701Z,67.53
2023-01-07T07:40:52.286Z,66.79
2023-01-07T07:45:54.967Z,66.98
2023-01-07T07:50:57.768Z,66.77
2023-01-07T07:56:00.415Z,66.47
2023-01-07T08:01:03.180Z,67.39
2023-01-07T08:06:06.462Z,67.35
2023-01-07T08:11:09.334Z,67.04
2023-01-07T08:16:12.002Z,66.67
2023-01-07T08:21:14.876Z,67.21
2023-01-07T08:26:20.258Z,67.11
2023-01-07T08:31:23.668Z,67.17
2023-01-07T08:36:26.724Z,66.53
2023-01-07T08:41:29.333Z,67.20
2023-01-07T08:46:34.870Z,66.61
2023-01-07T08:51:37.695Z,66.93
2023-01-07T08:56:40.368Z,67.33
2023-01-07T09:01:43.089Z,66.98
2023-01-07T09:06:45.839Z,67.23
2023-01-07T09:11:48.386Z,67.48
2023-01-07T09:16:50.995Z,66.92
2023-01-07T09:21:53.583Z,67.36
2023-01-07T09:26:56.170Z,67.50
2023-01-07T09:31:58.881Z,67.01
2023-01-07T09:37:01.559Z,66.52
2023-01-07T09:42:43.858Z,66.87
2023-01-07T09:47:50.367Z,67.42
2023-01-07T09:52:57.562Z,66.35
2023-01-07T09:58:00.431Z,66.95
2023-01-07T10:03:30.333Z,67.07
2023-01-07T10:08:45.858Z,66.69
2023-01-07T10:14:04.370Z,66.61
2023-01-07T10:19:06.843Z,66.95
2023-01-07T10:24:21.951Z,67.17
2023-01-07T10:29:44.820Z,66.78
2023-01-07T10:34:50.385Z,66.33
2023-01-07T10:40:17.885Z,66.88
2023-01-07T10:45:52.819Z,67.69
2023-01-07T10:51:34.029Z,66.44
2023-01-07T10:56:42.442Z,66.85
2023-01-07T11:01:52.300Z,66.01
2023-01-07T11:07:07.738Z,66.33
2023-01-07T11:12:39.002Z,66.27
2023-01-07T11:18:21.928Z,66.37
2023-01-07T11:23:38.216Z,66.81
2023-01-07T11:28:56.076Z,66.11
2023-01-07T11:34:02.902Z,66.64
2023-01-07T11:39:22.725Z,66.45
2023-01-07T11:44:26.916Z,66.60
2023-01-07T11:49:31.171Z,65.52
2023-01-07T11:54:33.993Z,65.61
2023-01-07T11:59:36.545Z,66.08
2023-01-07T12:04:40.433Z,64.97
2023-01-07T12:09:45.583Z,66.13
2023-01-07T12:14:48.859Z,65.81
2023-01-07T12:20:21.418Z,65.17
2023-01-07T12:25:24.352Z,66.61
2023-01-07T12:30:32.773Z,66.39
2023-01-07T12:35:42.948Z,66.76
2023-01-07T12:40:51.439Z,66.52
2023-01-07T12:46:00.974Z,66.84
2023-01-07T12:51:14.173Z,66.03
2023-01-07T12:56:27.515Z,67.39
2023-01-07T13:01:37.108Z,67.05
2023-01-07T13:07:05.575Z,67.12
2023-01-07T13:12:45.585Z,67.22
2023-01-07T13:17:50.534Z,67.07
2023-01-07T13:22:56.613Z,67.11
2023-01-07T13:28:14.298Z,67.75
2023-01-07T13:33:25.236Z,68.02
2023-01-07T13:38:38.731Z,68.43
2023-01-07T13:43:59.262Z,68.38
2023-01-07T13:49:02.025Z,68.77
2023-01-07T13:54:04.799Z,68.71
2023-01-07T13:59:31.046Z,68.91
2023-01-07T14:04:36.936Z,68.00
2023-01-07T14:09:41.173Z,69.08
2023-01-07T14:15:23.143Z,69.43
2023-01-07T14:21:21.411Z,69.59
2023-01-07T14:26:52.843Z,69.41
2023-01-07T14:32:29.773Z,69.40
2023-01-07T14:37:36.963Z,68.95
2023-01-07T14:42:43.037Z,68.92
2023-01-07T14:47:45.687Z,68.98
2023-01-07T14:53:22.423Z,69.38
2023-01-07T14:58:50.867Z,69.34
2023-01-07T15:04:02.490Z,69.26
2023-01-07T15:09:32.498Z,69.23
2023-01-07T15:14:53.902Z,70.14
2023-01-07T15:19:58.025Z,70.57
2023-01-07T15:25:09.214Z,69.95
2023-01-07T15:30:26.481Z,69.50
2023-01-07T15:35:34.376Z,69.85
2023-01-07T15:40:37.546Z,69.57
2023-01-07T15:45:40.338Z,69.35
2023-01-07T15:50:46.089Z,70.63
2023-01-07T15:56:03.183Z,69.88
2023-01-07T16:01:08.660Z,69.34
2023-01-07T16:06:36.647Z,69.64
2023-01-07T16:11:39.556Z,69.52
2023-01-07T16:16:42.652Z,69.65
2023-01-07T16:21:58.402Z,70.05
2023-01-07T16:27:05.430Z,69.19
2023-01-07T16:32:09.069Z,68.85
2023-01-07T16:37:15.944Z,69.13
2023-01-07T16:42:23.663Z,69.60
2023-01-07T16:47:32.385Z,68.82
2023-01-07T16:52:35.083Z,69.41
2023-01-07T16:57:42.682Z,69.77
2023-01-07T17:02:57.107Z,68.99
2023-01-07T17:08:05.589Z,70.57
2023-01-07T17:13:14.674Z,69.93
2023-01-07T17:18:17.738Z,69.87
2023-01-07T17:23:26.833Z,70.34
2023-01-07T17:28:33.181Z,69.78
2023-01-07T17:33:37.321Z,70.59
2023-01-07T17:38:40.163Z,70.38
2023-01-07T17:43:43.288Z,70.68
2023-01-07T17:48:46.332Z,70.08
2023-01-07T17:53:51.141Z,70.07
2023-01-07T17:58:55.955Z,69.78
2023-01-07T18:03:59.375Z,69.79
2023-01-07T18:09:05.169Z,70.45
2023-01-07T18:14:15.713Z,70.66
2023-01-07T18:19:20.029Z,70.35
2023-01-07T18:24:22.956Z,70.73
2023-01-07T18:29:26.152Z,70.21
2023-01-07T18:34:29.364Z,70.00
2023-01-07T18:39:32.254Z,70.37
2023-01-07T18:44:35.502Z,70.36
2023-01-07T18:49:38.609Z,70.59
2023-01-07T18:54:41.713Z,70.53
2023-01-07T18:59:44.758Z,70.06
2023-01-07T19:04:49.051Z,70.39
2023-01-07T19:09:53.227Z,70.16
2023-01-07T19:14:56.716Z,70.67
2023-01-07T19:19:59.839Z,70.36
2023-01-07T19:25:02.938Z,70.58
2023-01-07T19:30:07.523Z,70.61
2023-01-07T19:35:10.681Z,69.98
2023-01-07T19:40:13.995Z,69.63
2023-01-07T19:45:16.823Z,70.40
2023-01-07T19:50:19.716Z,70.19
2023-01-07T19:55:24.651Z,70.21
2023-01-07T20:00:27.432Z,69.68
2023-01-07T20:05:30.680Z,70.30
2023-01-07T20:10:35.624Z,70.54
2023-01-07T20:15:38.516Z,70.65
2023-01-07T20:20:41.644Z,70.22
2023-01-07T20:25:48.279Z,70.21
2023-01-07T20:30:51.374Z,69.63
2023-01-07T20:36:06.700Z,70.20
2023-01-07T20:41:13.159Z,70.14
2023-01-07T20:46:16.114Z,70.22
2023-01-07T20:51:19.384Z,69.72
2023-01-07T20:56:24.420Z,70.12
2023-01-07T21:01:27.588Z,70.33
2023-01-07T21:06:31.011Z,69.63
2023-01-07T21:11:34.021Z,70.67
2023-01-07T21:16:37.632Z,70.04
2023-01-07T21:21:40.718Z,69.66
2023-01-07T21:26:44.525Z,70.52
2023-01-07T21:31:47.440Z,69.91
2023-01-07T21:36:53.062Z,69.71
2023-01-07T21:41:55.724Z,69.98
2023-01-07T21:46:58.263Z,70.35
2023-01-07T21:52:00.891Z,70.80
2023-01-07T21:57:03.695Z,70.57
2023-01-07T22:02:06.477Z,70.33
2023-01-07T22:07:19.460Z,70.28
2023-01-07T22:12:23.452Z,70.31
2023-01-07T22:17:26.840Z,70.25
2023-01-07T22:22:29.427Z,70.54
2023-01-07T22:27:32.113Z,70.79
2023-01-07T22:32:34.731Z,70.49
2023-01-07T22:37:37.422Z,70.56
2023-01-07T22:42:55.893Z,70.51
2023-01-07T22:47:58.702Z,70.63
2023-01-07T22:53:01.430Z,71.18
2023-01-07T22:58:04.961Z,70.99
2023-01-07T23:03:07.595Z,71.16
2023-01-07T23:08:10.956Z,70.72
2023-01-07T23:13:13.530Z,70.80
2023-01-07T23:18:16.957Z,69.31
2023-01-07T23:23:19.592Z,70.48
2023-01-07T23:28:22.177Z,70.01
2023-01-07T23:33:24.705Z,70.14
2023-01-07T23:38:27.409Z,69.73
2023-01-07T23:43:30.974Z,70.09
2023-01-07T23:48:35.260Z,69.78
2023-01-07T23:53:38.439Z,70.26
2023-01-07T23:58:41.162Z,70.44
